Time;durP1;ratioP1;P1;durP2;ratioP2;P2;SDS_P1;SDS_P2;PMS_P1;PMS_P2;Temp;Humidity;BMP_temperature;BMP_pressure;BME280_temperature;BME280_humidity;BME280_pressure;Samples;Min_cycle;Max_cycle;Signal;HPM_P1;HPM_P2
2024/02/03 00:01:39;;;;;;;7.38;4.50;;;;;;;-0.27;69.06;95530.84;5029230;28;20038;-71
2024/02/03 00:04:05;;;;;;;6.90;4.03;;;;;;;-0.29;69.02;95519.00;5013143;28;20518;-71
2024/02/03 00:06:30;;;;;;;7.13;4.55;;;;;;;-0.50;69.75;95508.56;4996668;28;20045;-71
2024/02/03 00:08:55;;;;;;;7.45;4.65;;;;;;;-0.45;69.76;95531.38;5013221;28;20025;-71
2024/02/03 00:11:21;;;;;;;6.90;4.25;;;;;;;-0.56;70.06;95508.69;4993136;28;20048;-71
2024/02/03 00:13:46;;;;;;;5.97;4.18;;;;;;;-0.62;70.22;95524.19;5008516;28;20028;-71
2024/02/03 00:16:12;;;;;;;6.40;4.50;;;;;;;-0.76;70.77;95519.47;5013369;28;20029;-71
2024/02/03 00:18:37;;;;;;;9.32;5.30;;;;;;;-0.77;70.75;95524.63;4996667;28;20028;-71
2024/02/03 00:21:04;;;;;;;6.28;4.25;;;;;;;-0.65;70.27;95506.41;5013207;28;20037;-71
2024/02/03 00:23:30;;;;;;;6.07;3.80;;;;;;;-0.71;70.51;95519.34;4993226;28;20036;-71
2024/02/03 00:25:56;;;;;;;4.90;3.90;;;;;;;-0.75;70.50;95533.09;5011462;28;20136;-71
2024/02/03 00:28:21;;;;;;;5.57;3.60;;;;;;;-0.62;70.51;95533.56;4980269;28;20033;-71
2024/02/03 00:30:46;;;;;;;7.60;4.47;;;;;;;-0.66;70.48;95537.94;5030407;28;20045;-71
2024/02/03 00:33:12;;;;;;;8.02;4.47;;;;;;;-0.73;70.85;95526.22;5029667;28;20030;-71
2024/02/03 00:35:38;;;;;;;7.22;3.83;;;;;;;-0.66;71.10;95540.50;5012854;28;20069;-71
2024/02/03 00:38:04;;;;;;;5.28;3.63;;;;;;;-0.65;70.96;95543.88;4980725;28;20052;-71
2024/02/03 00:40:30;;;;;;;9.13;4.30;;;;;;;-0.74;70.82;95519.44;5007971;28;20029;-71
2024/02/03 00:42:55;;;;;;;5.25;3.38;;;;;;;-0.68;70.72;95521.81;4993493;28;20033;-71
2024/02/03 00:45:21;;;;;;;5.35;3.63;;;;;;;-0.80;71.00;95540.03;4993379;28;20038;-71
2024/02/03 00:47:46;;;;;;;5.13;3.30;;;;;;;-0.72;70.75;95520.25;4977165;28;20400;-70
2024/02/03 00:50:14;;;;;;;5.82;3.78;;;;;;;-0.73;71.10;95506.63;4993447;28;20480;-71
2024/02/03 00:52:43;;;;;;;5.85;3.50;;;;;;;-0.64;70.96;95518.31;4993658;28;20053;-71
2024/02/03 00:55:09;;;;;;;5.40;3.20;;;;;;;-0.80;70.27;95494.09;4997434;28;20033;-71
2024/02/03 00:57:35;;;;;;;6.45;3.50;;;;;;;-0.75;70.46;95522.88;5015039;28;20025;-71
2024/02/03 01:00:02;;;;;;;5.10;3.00;;;;;;;-0.60;69.88;95512.25;4980302;28;20029;-71
2024/02/03 01:02:28;;;;;;;5.53;3.10;;;;;;;-0.58;69.86;95509.66;5030485;28;20033;-71
2024/02/03 01:04:54;;;;;;;4.68;3.17;;;;;;;-0.61;70.27;95515.69;5030143;28;20407;-71
2024/02/03 01:07:19;;;;;;;5.18;2.47;;;;;;;-0.62;69.50;95505.50;5024813;28;20026;-71
2024/02/03 01:09:45;;;;;;;5.28;2.92;;;;;;;-0.69;69.51;95484.44;4993386;28;20084;-71
2024/02/03 01:12:10;;;;;;;5.75;3.08;;;;;;;-0.50;69.02;95508.56;5011121;28;20408;-71
2024/02/03 01:14:36;;;;;;;4.20;2.70;;;;;;;-0.25;68.38;95507.84;5012763;28;20447;-71
2024/02/03 01:17:02;;;;;;;3.65;2.42;;;;;;;-0.35;68.49;95506.44;5007604;28;20030;-71
2024/02/03 01:19:28;;;;;;;5.50;2.90;;;;;;;-0.42;69.30;95502.38;5010661;28;20160;-71
2024/02/03 01:21:53;;;;;;;3.90;2.40;;;;;;;-0.29;68.44;95501.13;5016159;28;20022;-71
2024/02/03 01:24:18;;;;;;;4.43;2.17;;;;;;;-0.35;68.83;95497.06;5016281;28;20034;-71
2024/02/03 01:26:44;;;;;;;4.07;2.55;;;;;;;-0.49;67.92;95494.06;5033807;28;20048;-71
2024/02/03 01:29:10;;;;;;;3.65;2.40;;;;;;;-0.30;68.70;95504.59;5016224;28;20037;-71
2024/02/03 01:31:36;;;;;;;4.55;2.67;;;;;;;-0.39;68.07;95484.41;5025752;28;20044;-71
2024/02/03 01:34:01;;;;;;;4.10;2.63;;;;;;;-0.28;67.81;95487.47;4996254;28;20042;-71
2024/02/03 01:36:27;;;;;;;3.78;2.20;;;;;;;-0.65;68.49;95467.31;5020442;28;20033;-71
2024/02/03 01:38:52;;;;;;;4.55;2.30;;;;;;;-0.38;68.34;95491.22;5015951;28;20021;-71
2024/02/03 01:41:18;;;;;;;3.97;2.30;;;;;;;-0.35;68.04;95491.94;5033642;28;20034;-70
2024/02/03 01:43:46;;;;;;;4.47;2.65;;;;;;;-0.53;68.68;95498.44;5015918;28;20464;-71
2024/02/03 01:46:12;;;;;;;5.38;2.60;;;;;;;-0.77;69.73;95487.19;5012575;28;20455;-71
2024/02/03 01:48:38;;;;;;;4.18;2.50;;;;;;;-0.65;69.82;95465.59;4996295;28;20091;-70
2024/02/03 01:51:03;;;;;;;6.80;3.47;;;;;;;-0.88;70.71;95483.28;4996220;28;20026;-71
2024/02/03 01:53:29;;;;;;;5.68;3.17;;;;;;;-0.69;70.38;95484.44;5014382;28;20083;-71
2024/02/03 01:55:55;;;;;;;4.78;2.67;;;;;;;-0.47;70.15;95475.28;5005201;28;20507;-71
2024/02/03 01:58:20;;;;;;;4.72;2.70;;;;;;;-0.92;70.63;95479.94;5011876;28;20507;-71
2024/02/03 02:00:46;;;;;;;5.85;3.90;;;;;;;-1.00;70.35;95452.13;5033724;28;20038;-71
2024/02/03 02:03:13;;;;;;;6.18;3.22;;;;;;;-1.19;70.84;95467.06;5015606;28;20047;-70
2024/02/03 02:05:38;;;;;;;5.82;3.35;;;;;;;-1.09;71.31;95456.63;4998108;28;20434;-70
2024/02/03 02:08:04;;;;;;;6.18;2.85;;;;;;;-1.07;71.02;95439.56;5006613;28;20034;-70
2024/02/03 02:10:29;;;;;;;3.67;2.47;;;;;;;-0.96;70.97;95448.59;5015680;28;20037;-71
2024/02/03 02:12:55;;;;;;;3.63;2.50;;;;;;;-1.07;71.92;95453.16;4999192;28;20065;-71
2024/02/03 02:15:20;;;;;;;5.03;2.65;;;;;;;-1.06;71.02;95442.06;5000908;28;20084;-70
2024/02/03 02:17:46;;;;;;;5.03;2.92;;;;;;;-1.32;70.31;95419.00;5001230;28;20021;-71
2024/02/03 02:20:12;;;;;;;5.88;2.85;;;;;;;-1.27;70.80;95448.59;4999062;28;20041;-71
2024/02/03 02:22:37;;;;;;;4.00;2.13;;;;;;;-1.17;71.17;95454.28;5015184;28;20028;-70
2024/02/03 02:25:06;;;;;;;5.18;2.80;;;;;;;-1.14;70.90;95444.84;4998897;28;20073;-71
2024/02/03 02:27:32;;;;;;;3.60;2.65;;;;;;;-1.20;70.36;95418.66;5015531;28;20028;-70
2024/02/03 02:29:57;;;;;;;5.72;2.70;;;;;;;-1.45;71.23;95442.28;5014849;28;20038;-71
2024/02/03 02:32:23;;;;;;;5.78;3.08;;;;;;;-1.39;71.18;95424.28;5032732;28;20025;-70
2024/02/03 02:34:48;;;;;;;4.32;2.80;;;;;;;-1.38;71.25;95428.47;5014640;28;20539;-71
2024/02/03 02:37:14;;;;;;;4.20;2.90;;;;;;;-1.54;70.89;95414.47;4998704;28;20044;-70
2024/02/03 02:39:39;;;;;;;7.82;3.50;;;;;;;-1.57;70.55;95448.50;5014844;28;20107;-70
2024/02/03 02:42:06;;;;;;;6.78;3.17;;;;;;;-1.70;71.96;95454.81;5014785;28;20175;-70
2024/02/03 02:44:31;;;;;;;5.05;3.47;;;;;;;-1.72;72.60;95463.34;5014961;28;20061;-70
2024/02/03 02:46:57;;;;;;;14.63;9.25;;;;;;;-1.70;72.80;95459.03;5014839;28;20029;-70
2024/02/03 02:49:22;;;;;;;19.27;11.63;;;;;;;-1.92;72.72;95439.22;5013764;28;20431;-70
2024/02/03 02:51:48;;;;;;;22.13;11.80;;;;;;;-1.79;73.00;95439.72;5014713;28;20092;-70
2024/02/03 02:54:14;;;;;;;17.27;10.75;;;;;;;-1.58;72.28;95451.09;5032155;28;20037;-70
2024/02/03 02:56:39;;;;;;;10.23;6.38;;;;;;;-1.92;71.77;95423.94;4994831;28;20393;-70
2024/02/03 02:59:05;;;;;;;9.35;6.57;;;;;;;-1.71;72.87;95442.94;4994882;28;20037;-71
2024/02/03 03:01:31;;;;;;;10.00;5.95;;;;;;;-1.66;72.98;95440.28;4978959;28;20045;-70
2024/02/03 03:03:56;;;;;;;6.85;4.28;;;;;;;-1.70;72.92;95423.38;5014536;28;20021;-70
2024/02/03 03:06:22;;;;;;;4.63;3.28;;;;;;;-1.81;73.27;95409.22;5032124;28;20033;-70
2024/02/03 03:08:47;;;;;;;4.97;3.00;;;;;;;-1.58;72.81;95400.16;5007403;28;20026;-70
2024/02/03 03:11:13;;;;;;;7.78;3.60;;;;;;;-1.63;72.63;95407.06;5014292;28;20040;-70
2024/02/03 03:13:39;;;;;;;10.80;6.97;;;;;;;-1.89;72.57;95377.19;4981567;28;20423;-71
2024/02/03 03:16:06;;;;;;;14.95;9.65;;;;;;;-1.64;73.00;95428.34;5014191;28;20037;-70
2024/02/03 03:18:32;;;;;;;13.13;9.02;;;;;;;-1.52;72.97;95427.19;4981998;28;20492;-70
2024/02/03 03:20:59;;;;;;;12.98;8.93;;;;;;;-1.55;72.50;95424.72;4994332;28;20072;-71
2024/02/03 03:23:24;;;;;;;11.88;8.25;;;;;;;-1.63;72.81;95430.81;4994619;28;20033;-70
2024/02/03 03:25:50;;;;;;;10.25;7.25;;;;;;;-1.65;72.89;95422.38;5006142;28;20041;-70
2024/02/03 03:28:15;;;;;;;11.88;8.02;;;;;;;-1.61;73.10;95425.72;4997936;28;20485;-70
2024/02/03 03:30:41;;;;;;;11.38;6.75;;;;;;;-1.66;72.71;95414.78;5031905;28;20029;-70
2024/02/03 03:33:07;;;;;;;10.02;7.00;;;;;;;-1.61;72.61;95418.06;5013984;28;20033;-70
2024/02/03 03:35:33;;;;;;;10.77;6.82;;;;;;;-1.62;72.73;95412.09;5031527;28;20076;-70
2024/02/03 03:37:58;;;;;;;11.55;6.70;;;;;;;-1.33;71.89;95422.44;4997663;28;20056;-71
2024/02/03 03:40:24;;;;;;;16.73;11.95;;;;;;;-1.86;72.64;95417.84;5013850;28;20029;-71
2024/02/03 03:42:49;;;;;;;18.50;11.98;;;;;;;-1.69;72.65;95430.16;5013271;28;20026;-71
2024/02/03 03:45:16;;;;;;;18.55;12.60;;;;;;;-1.81;72.92;95426.22;5031609;28;20034;-70
2024/02/03 03:47:42;;;;;;;16.85;12.32;;;;;;;-1.90;73.90;95421.31;4992148;28;20101;-71
2024/02/03 03:50:08;;;;;;;14.77;10.85;;;;;;;-1.87;73.13;95409.34;4994153;28;20110;-71
2024/02/03 03:52:33;;;;;;;15.70;9.85;;;;;;;-1.92;74.04;95421.38;4994117;28;20431;-71
2024/02/03 03:55:00;;;;;;;13.27;9.13;;;;;;;-1.72;73.69;95420.06;4994054;28;20037;-71
2024/02/03 03:57:25;;;;;;;14.80;8.50;;;;;;;-1.87;73.29;95419.53;4994972;28;20033;-70
2024/02/03 03:59:51;;;;;;;11.88;8.43;;;;;;;-1.93;74.25;95417.16;4988446;28;20026;-71
2024/02/03 04:02:16;;;;;;;12.23;9.02;;;;;;;-1.92;73.96;95426.47;4990380;28;20506;-71
2024/02/03 04:04:42;;;;;;;12.45;9.40;;;;;;;-1.80;73.91;95417.69;5031147;28;20033;-71
2024/02/03 04:07:08;;;;;;;13.85;8.60;;;;;;;-2.04;73.51;95403.84;4996899;28;20479;-71
2024/02/03 04:09:33;;;;;;;13.73;8.52;;;;;;;-2.04;74.19;95422.50;5013413;28;20087;-71
2024/02/03 04:11:59;;;;;;;11.60;8.18;;;;;;;-2.13;74.59;95404.06;5030730;28;20076;-71
2024/02/03 04:14:24;;;;;;;14.73;8.85;;;;;;;-2.00;74.76;95425.81;4997034;28;20103;-71
2024/02/03 04:16:49;;;;;;;13.45;8.60;;;;;;;-1.97;74.02;95414.72;5021391;28;20018;-71
2024/02/03 04:19:15;;;;;;;9.82;7.30;;;;;;;-2.03;73.95;95390.25;5030955;28;20500;-71
2024/02/03 04:21:40;;;;;;;11.35;7.18;;;;;;;-2.19;74.15;95384.69;5030715;28;20044;-71
2024/02/03 04:24:06;;;;;;;8.15;6.15;;;;;;;-1.85;73.98;95410.16;5030706;28;20038;-71
2024/02/03 04:26:31;;;;;;;8.70;5.93;;;;;;;-2.07;73.34;95406.47;5030690;28;20476;-71
2024/02/03 04:28:57;;;;;;;8.85;5.05;;;;;;;-2.05;72.58;95410.66;5030724;28;20025;-71
2024/02/03 04:31:22;;;;;;;6.65;4.60;;;;;;;-2.17;72.64;95393.13;5013237;28;20411;-71
2024/02/03 04:33:47;;;;;;;8.02;4.70;;;;;;;-2.37;72.68;95403.75;5012522;28;20156;-71
2024/02/03 04:36:13;;;;;;;6.80;4.53;;;;;;;-2.22;73.35;95396.66;4996890;28;20053;-71
2024/02/03 04:38:38;;;;;;;8.63;3.95;;;;;;;-2.33;73.72;95396.91;5030574;28;20500;-71
2024/02/03 04:41:04;;;;;;;7.43;3.92;;;;;;;-2.31;73.69;95406.19;5012030;28;20420;-71
2024/02/03 04:43:29;;;;;;;4.72;3.60;;;;;;;-2.49;73.45;95373.53;4994766;28;20483;-71
2024/02/03 04:45:54;;;;;;;11.23;7.53;;;;;;;-2.31;74.26;95418.91;5006376;28;20034;-71
2024/02/03 04:48:20;;;;;;;8.60;6.28;;;;;;;-2.19;73.78;95394.03;5002731;28;20025;-71
2024/02/03 04:50:45;;;;;;;9.38;6.45;;;;;;;-2.23;74.09;95394.97;5004688;28;20045;-71
2024/02/03 04:53:11;;;;;;;8.65;5.55;;;;;;;-2.25;73.83;95402.66;5018401;28;20032;-71
2024/02/03 04:55:37;;;;;;;10.30;6.32;;;;;;;-2.01;73.28;95406.31;4984356;28;20037;-71
2024/02/03 04:58:02;;;;;;;9.70;5.35;;;;;;;-2.08;73.38;95397.16;5000254;28;20018;-71
2024/02/03 05:00:27;;;;;;;7.85;5.63;;;;;;;-2.30;73.71;95405.31;5034785;28;20034;-71
2024/02/03 05:02:53;;;;;;;6.32;4.80;;;;;;;-2.16;73.75;95389.69;5034209;28;20021;-71
2024/02/03 05:05:18;;;;;;;6.50;4.88;;;;;;;-1.99;73.46;95406.28;5016835;28;20033;-71
2024/02/03 05:07:46;;;;;;;8.80;5.55;;;;;;;-1.96;72.81;95422.31;5034414;28;20021;-71
2024/02/03 05:10:12;;;;;;;7.43;5.22;;;;;;;-2.12;72.52;95405.72;5034355;28;20407;-71
2024/02/03 05:12:38;;;;;;;7.22;4.75;;;;;;;-2.12;72.92;95408.28;5000379;28;20111;-71
2024/02/03 05:15:04;;;;;;;6.03;4.32;;;;;;;-2.26;73.59;95428.97;5034311;28;20041;-71
2024/02/03 05:17:29;;;;;;;9.30;4.65;;;;;;;-2.30;73.80;95432.47;5016782;28;20033;-71
2024/02/03 05:19:54;;;;;;;7.63;4.85;;;;;;;-2.12;72.86;95437.13;5016363;28;20037;-70
2024/02/03 05:22:20;;;;;;;6.38;4.30;;;;;;;-2.23;73.46;95428.06;5016502;28;20396;-70
2024/02/03 05:24:46;;;;;;;6.65;3.80;;;;;;;-2.24;73.91;95445.03;5016293;28;20033;-70
2024/02/03 05:27:11;;;;;;;5.18;3.63;;;;;;;-2.17;73.84;95427.91;5034006;28;20025;-70
2024/02/03 05:29:40;;;;;;;5.30;3.83;;;;;;;-2.47;73.90;95415.03;5033965;28;20056;-70
2024/02/03 05:32:06;;;;;;;7.70;4.03;;;;;;;-2.14;72.17;95410.03;4999908;28;20025;-70
2024/02/03 05:34:31;;;;;;;6.78;3.35;;;;;;;-1.94;72.05;95430.75;4996199;28;20052;-70
2024/02/03 05:36:57;;;;;;;4.50;3.30;;;;;;;-2.04;72.65;95424.22;4996554;28;20026;-70
2024/02/03 05:39:22;;;;;;;4.53;2.92;;;;;;;-1.96;72.16;95411.31;5032765;28;20036;-70
2024/02/03 05:41:50;;;;;;;4.10;2.75;;;;;;;-1.78;72.22;95420.19;5033702;28;20482;-70
2024/02/03 05:44:17;;;;;;;4.65;2.97;;;;;;;-1.98;72.69;95418.97;5033558;28;20025;-70
2024/02/03 05:46:43;;;;;;;8.50;4.60;;;;;;;-1.74;72.27;95411.59;5033884;28;20021;-70
2024/02/03 05:49:08;;;;;;;8.73;6.25;;;;;;;-1.91;71.97;95397.56;4999078;28;20526;-70
2024/02/03 05:51:34;;;;;;;6.60;4.90;;;;;;;-1.79;71.58;95404.06;4996642;28;20030;-70
2024/02/03 05:53:59;;;;;;;5.60;3.78;;;;;;;-1.96;71.92;95414.69;4995713;28;20030;-70
2024/02/03 05:56:24;;;;;;;10.85;8.98;;;;;;;-1.89;71.94;95413.66;5025679;28;20420;-70
2024/02/03 05:58:50;;;;;;;4.63;2.72;;;;;;;-1.92;71.00;95412.88;5033165;28;20022;-70
2024/02/03 06:01:19;;;;;;;4.80;2.78;;;;;;;-1.85;70.67;95404.22;5017832;28;20042;-70
2024/02/03 06:03:45;;;;;;;4.28;2.55;;;;;;;-1.88;70.63;95394.94;5005253;28;20025;-70
2024/02/03 06:06:10;;;;;;;4.85;3.00;;;;;;;-1.69;70.21;95391.94;5027041;28;20026;-71
2024/02/03 06:08:37;;;;;;;4.88;2.40;;;;;;;-1.77;70.29;95383.66;4995647;28;20037;-70
2024/02/03 06:11:02;;;;;;;3.72;2.33;;;;;;;-1.68;70.87;95417.38;5004616;28;20044;-70
2024/02/03 06:13:27;;;;;;;3.97;2.42;;;;;;;-1.61;69.56;95405.31;5012204;28;20030;-70
2024/02/03 06:15:53;;;;;;;3.75;2.25;;;;;;;-1.58;68.95;95413.72;5014783;28;20040;-70
2024/02/03 06:18:19;;;;;;;3.78;2.53;;;;;;;-1.52;68.42;95407.63;5010279;28;20030;-70
2024/02/03 06:20:47;;;;;;;3.92;2.90;;;;;;;-1.41;67.99;95415.81;4998287;28;20103;-70
2024/02/03 06:23:12;;;;;;;3.97;2.45;;;;;;;-1.32;68.06;95416.47;4998210;28;20030;-70
2024/02/03 06:25:38;;;;;;;5.00;2.53;;;;;;;-1.48;68.60;95411.75;5012889;28;20252;-70
2024/02/03 06:28:03;;;;;;;3.88;2.63;;;;;;;-1.29;68.12;95403.63;4995473;28;20034;-70
2024/02/03 06:30:29;;;;;;;4.43;2.65;;;;;;;-1.31;68.86;95418.97;5014457;28;20119;-70
2024/02/03 06:32:54;;;;;;;3.40;2.17;;;;;;;-1.40;68.74;95376.69;5032098;28;20037;-71
2024/02/03 06:35:20;;;;;;;5.65;2.45;;;;;;;-1.37;69.29;95412.31;5032109;28;20077;-70
2024/02/03 06:37:45;;;;;;;4.93;2.70;;;;;;;-1.12;67.46;95416.72;5014542;28;20044;-70
2024/02/03 06:40:11;;;;;;;5.57;3.03;;;;;;;-1.16;67.93;95420.25;4993684;28;20096;-71
2024/02/03 06:42:36;;;;;;;4.53;2.80;;;;;;;-1.49;68.16;95371.84;5006971;28;20060;-70
2024/02/03 06:45:02;;;;;;;4.28;2.60;;;;;;;-1.20;69.27;95419.53;4999358;28;20049;-71
2024/02/03 06:47:27;;;;;;;5.18;2.60;;;;;;;-1.02;68.71;95417.34;5023188;28;20022;-71
2024/02/03 06:49:53;;;;;;;9.65;5.97;;;;;;;-0.96;68.77;95417.97;5012428;28;20469;-70
2024/02/03 06:52:18;;;;;;;6.38;4.18;;;;;;;-0.92;67.91;95422.13;5003069;28;20033;-70
2024/02/03 06:54:43;;;;;;;7.05;4.40;;;;;;;-0.85;67.92;95415.13;5014301;28;20033;-71
2024/02/03 06:57:09;;;;;;;6.05;4.60;;;;;;;-0.69;67.54;95415.53;4992996;28;20477;-70
2024/02/03 06:59:34;;;;;;;7.43;4.75;;;;;;;-0.75;67.83;95418.28;5014182;28;20052;-71
2024/02/03 07:02:00;;;;;;;9.02;5.68;;;;;;;-0.52;67.77;95417.59;5011355;28;20028;-71
2024/02/03 07:04:25;;;;;;;10.23;5.70;;;;;;;-0.51;68.04;95426.91;4989982;28;20041;-70
2024/02/03 07:06:50;;;;;;;5.45;3.30;;;;;;;-0.64;67.66;95426.44;4981093;28;20030;-71
2024/02/03 07:09:16;;;;;;;5.15;3.42;;;;;;;-0.64;68.19;95423.91;5031697;28;20135;-71
2024/02/03 07:11:41;;;;;;;5.63;3.92;;;;;;;-0.66;68.45;95424.81;4981598;28;20396;-71
2024/02/03 07:14:07;;;;;;;7.35;4.00;;;;;;;-0.49;67.58;95436.19;4997328;28;20067;-71
2024/02/03 07:16:32;;;;;;;7.72;4.43;;;;;;;-0.60;67.66;95410.16;5012558;28;20025;-71
2024/02/03 07:18:58;;;;;;;10.38;5.82;;;;;;;-0.34;68.53;95437.44;5013435;28;20045;-71
2024/02/03 07:21:23;;;;;;;17.48;8.55;;;;;;;-0.49;68.70;95438.75;5014270;28;20076;-71
2024/02/03 07:23:50;;;;;;;14.57;7.50;;;;;;;-0.05;68.44;95439.09;5013916;28;20029;-71
2024/02/03 07:26:15;;;;;;;16.10;8.30;;;;;;;0.30;66.87;95429.44;5031805;28;20025;-71
2024/02/03 07:28:41;;;;;;;11.45;7.85;;;;;;;0.13;66.24;95437.66;5031468;28;20442;-71
2024/02/03 07:31:06;;;;;;;15.48;8.30;;;;;;;0.26;67.14;95419.41;5014001;28;20056;-71
2024/02/03 07:33:32;;;;;;;12.32;7.07;;;;;;;0.99;66.35;95439.06;5005695;28;20045;-70
2024/02/03 07:35:57;;;;;;;12.73;7.82;;;;;;;1.80;63.66;95428.38;5011329;28;20060;-71
2024/02/03 07:38:25;;;;;;;10.45;6.28;;;;;;;1.72;63.27;95403.03;4979584;28;20499;-70
2024/02/03 07:40:50;;;;;;;11.93;5.95;;;;;;;1.72;64.09;95410.72;5012131;28;20034;-71
2024/02/03 07:43:16;;;;;;;5.05;3.33;;;;;;;2.90;61.37;95402.50;4996929;28;20032;-71
2024/02/03 07:45:41;;;;;;;5.95;3.50;;;;;;;4.84;55.75;95401.94;4997575;28;20033;-71
2024/02/03 07:48:07;;;;;;;4.63;3.50;;;;;;;5.92;52.82;95394.50;5013533;28;20025;-71
2024/02/03 07:50:32;;;;;;;4.72;2.47;;;;;;;6.88;46.21;95401.09;4979643;28;20040;-71
2024/02/03 07:52:58;;;;;;;3.38;2.45;;;;;;;7.93;42.85;95408.50;4977704;28;20049;-71
2024/02/03 07:55:23;;;;;;;3.80;2.40;;;;;;;9.72;39.90;95406.16;4994649;28;20033;-71
2024/02/03 07:57:48;;;;;;;3.90;2.10;;;;;;;10.61;38.42;95394.59;5013386;28;20033;-71
2024/02/03 08:00:14;;;;;;;4.18;2.33;;;;;;;12.04;36.67;95395.78;5031236;28;20084;-71
2024/02/03 08:02:40;;;;;;;3.55;2.10;;;;;;;13.10;35.73;95394.16;5013589;28;20423;-71
2024/02/03 08:05:06;;;;;;;2.97;2.08;;;;;;;13.04;34.18;95384.22;5030788;28;20037;-71
2024/02/03 08:07:31;;;;;;;3.88;2.20;;;;;;;10.68;36.77;95378.44;4997139;28;20030;-71
2024/02/03 08:09:56;;;;;;;5.85;3.17;;;;;;;7.53;41.22;95392.91;5013072;28;20470;-71
2024/02/03 08:12:22;;;;;;;3.65;2.35;;;;;;;7.73;41.73;95402.00;5013393;28;20084;-71
2024/02/03 08:14:47;;;;;;;4.07;2.80;;;;;;;7.61;42.79;95396.66;5030938;28;20056;-70
2024/02/03 08:17:13;;;;;;;5.35;2.50;;;;;;;7.43;42.14;95407.28;5013270;28;20439;-70
2024/02/03 08:19:39;;;;;;;3.58;2.40;;;;;;;7.22;42.28;95422.38;5030879;28;20033;-70
2024/02/03 08:22:04;;;;;;;4.30;2.55;;;;;;;6.76;43.46;95381.97;4980718;28;20643;-71
2024/02/03 08:24:30;;;;;;;7.50;3.60;;;;;;;6.47;44.91;95415.50;5013040;28;20033;-71
2024/02/03 08:26:55;;;;;;;8.60;5.55;;;;;;;5.46;47.47;95407.31;4996757;28;20025;-71
2024/02/03 08:29:21;;;;;;;7.45;5.50;;;;;;;4.77;49.21;95401.44;5012883;28;20037;-71
2024/02/03 08:31:46;;;;;;;7.70;5.07;;;;;;;4.72;49.98;95395.69;5030516;28;20029;-71
2024/02/03 08:34:12;;;;;;;7.57;5.00;;;;;;;4.79;50.12;95402.19;5012817;28;20042;-71
2024/02/03 08:36:37;;;;;;;8.23;4.85;;;;;;;4.85;49.61;95401.88;5013108;28;20443;-71
2024/02/03 08:39:03;;;;;;;6.53;4.15;;;;;;;4.53;50.49;95395.75;5030554;28;20496;-71
2024/02/03 08:41:29;;;;;;;7.30;3.78;;;;;;;4.35;50.40;95397.50;5013047;28;20029;-71
2024/02/03 08:43:54;;;;;;;9.70;5.75;;;;;;;4.33;51.28;95396.75;4996567;28;20021;-71
2024/02/03 08:46:20;;;;;;;5.63;3.20;;;;;;;3.85;50.96;95407.66;5012840;28;20511;-70
2024/02/03 08:48:45;;;;;;;6.28;3.42;;;;;;;4.13;50.25;95402.88;4992938;28;20496;-71
2024/02/03 08:51:11;;;;;;;5.40;2.90;;;;;;;4.08;49.97;95380.84;4984994;28;20042;-70
2024/02/03 08:53:36;;;;;;;4.40;3.08;;;;;;;4.13;50.41;95390.00;5030549;28;20527;-71
2024/02/03 08:56:06;;;;;;;6.25;4.22;;;;;;;3.79;50.56;95368.50;5030771;28;20484;-71
2024/02/03 08:58:31;;;;;;;6.63;5.05;;;;;;;4.10;50.91;95386.75;5013078;28;20491;-71
2024/02/03 09:00:56;;;;;;;3.53;2.72;;;;;;;3.99;51.04;95389.84;5012796;28;20099;-71
2024/02/03 09:03:22;;;;;;;10.43;6.95;;;;;;;4.10;51.56;95403.03;5012918;28;20092;-71
2024/02/03 09:05:47;;;;;;;5.22;3.05;;;;;;;3.99;51.37;95402.69;4996390;28;20041;-71
2024/02/03 09:08:13;;;;;;;4.70;2.38;;;;;;;4.13;50.70;95407.19;4996428;28;20013;-71
2024/02/03 09:10:38;;;;;;;5.15;2.70;;;;;;;4.10;50.42;95385.00;5012903;28;20041;-71
2024/02/03 09:13:03;;;;;;;7.00;4.28;;;;;;;3.95;51.23;95404.56;5012570;28;20034;-71
2024/02/03 09:15:29;;;;;;;4.68;2.75;;;;;;;4.00;51.17;95404.34;5012700;28;20034;-70
2024/02/03 09:17:54;;;;;;;4.78;2.90;;;;;;;4.12;51.28;95405.50;5012539;28;20435;-71
2024/02/03 09:20:20;;;;;;;8.10;5.50;;;;;;;3.91;51.80;95408.19;4991409;28;20061;-71
2024/02/03 09:22:45;;;;;;;7.72;4.25;;;;;;;4.22;51.88;95404.16;4998621;28;20033;-71
2024/02/03 09:25:10;;;;;;;7.07;4.90;;;;;;;4.21;51.67;95392.22;4980730;28;20038;-71
2024/02/03 09:27:36;;;;;;;7.38;4.75;;;;;;;4.33;51.64;95398.50;5009873;28;20617;-70
2024/02/03 09:30:05;;;;;;;7.47;5.32;;;;;;;4.06;52.38;95390.38;4976139;28;20491;-71
2024/02/03 09:32:30;;;;;;;6.93;4.47;;;;;;;4.07;52.06;95363.75;5000516;28;20037;-71
2024/02/03 09:34:56;;;;;;;8.60;5.15;;;;;;;4.61;51.76;95408.25;5029922;28;20053;-71
2024/02/03 09:37:21;;;;;;;28.52;16.45;;;;;;;4.52;51.79;95412.13;5012408;28;20438;-71
2024/02/03 09:39:47;;;;;;;17.85;9.25;;;;;;;4.43;52.25;95395.41;4996121;28;20423;-71
2024/02/03 09:42:12;;;;;;;7.53;4.20;;;;;;;4.21;52.30;95377.63;5030405;28;20499;-71
2024/02/03 09:44:38;;;;;;;6.13;4.15;;;;;;;4.25;51.97;95365.44;5003369;28;20033;-71
2024/02/03 09:47:03;;;;;;;25.17;16.20;;;;;;;4.46;51.79;95366.94;5001126;28;20507;-74
2024/02/03 09:49:29;;;;;;;9.65;7.10;;;;;;;4.53;52.17;95377.75;4974328;28;20046;-71
2024/02/03 09:51:54;;;;;;;5.05;2.95;;;;;;;4.42;51.96;95377.44;5011899;28;20111;-71
2024/02/03 09:54:20;;;;;;;5.97;3.90;;;;;;;4.51;51.85;95373.59;4992172;28;20034;-71
2024/02/03 09:56:46;;;;;;;4.72;3.08;;;;;;;4.54;51.55;95347.69;5029424;28;20036;-71
2024/02/03 09:59:12;;;;;;;4.13;3.08;;;;;;;4.67;51.01;95359.03;4999361;28;20535;-71
2024/02/03 10:01:38;;;;;;;8.30;5.22;;;;;;;4.58;51.49;95351.78;5032126;28;20113;-71
2024/02/03 10:04:03;;;;;;;15.13;10.48;;;;;;;4.69;51.56;95357.22;5012854;28;20440;-71
2024/02/03 10:06:29;;;;;;;7.45;4.40;;;;;;;4.80;51.67;95359.25;5033604;28;20075;-71
2024/02/03 10:08:54;;;;;;;4.20;3.13;;;;;;;4.90;51.38;95337.25;5015324;28;20021;-71
2024/02/03 10:11:20;;;;;;;4.18;2.67;;;;;;;5.27;50.63;95361.09;5015566;28;20091;-71
2024/02/03 10:13:49;;;;;;;4.97;2.40;;;;;;;5.38;50.02;95354.44;4994477;28;20030;-71
2024/02/03 10:16:15;;;;;;;7.55;5.18;;;;;;;5.20;50.47;95339.97;4992987;28;20037;-71
2024/02/03 10:18:40;;;;;;;8.52;4.82;;;;;;;5.19;50.46;95340.06;4998773;28;20450;-71
2024/02/03 10:21:06;;;;;;;7.70;4.22;;;;;;;4.88;51.20;95339.94;5014159;28;20346;-71
2024/02/03 10:23:32;;;;;;;4.85;3.33;;;;;;;4.95;51.61;95321.56;5032890;28;20025;-70
2024/02/03 10:26:00;;;;;;;4.97;3.45;;;;;;;5.15;50.91;95334.22;5015462;28;20087;-70
2024/02/03 10:28:26;;;;;;;9.95;7.85;;;;;;;4.87;50.83;95285.94;5015832;28;20040;-71
2024/02/03 10:30:55;;;;;;;7.40;4.03;;;;;;;5.15;51.14;95327.34;4999031;28;20416;-71
2024/02/03 10:33:20;;;;;;;5.22;3.35;;;;;;;5.06;51.04;95321.84;5015197;28;20033;-71
2024/02/03 10:35:46;;;;;;;6.55;5.03;;;;;;;5.28;50.87;95324.94;5014778;28;20506;-71
2024/02/03 10:38:12;;;;;;;51.10;24.20;;;;;;;5.37;50.89;95315.88;4998842;28;20491;-70
2024/02/03 10:40:37;;;;;;;5.93;3.17;;;;;;;5.04;51.35;95296.19;4998666;28;20103;-70
2024/02/03 10:43:03;;;;;;;6.70;3.75;;;;;;;5.18;51.52;95316.03;4998817;28;20022;-71
2024/02/03 10:45:30;;;;;;;5.78;2.40;;;;;;;5.40;51.47;95313.13;4998453;28;20061;-70
2024/02/03 10:47:57;;;;;;;26.08;13.68;;;;;;;5.28;51.50;95295.75;4982387;28;20025;-70
2024/02/03 10:50:25;;;;;;;12.20;6.63;;;;;;;5.42;51.25;95300.16;4998814;28;20041;-71
2024/02/03 10:52:52;;;;;;;13.93;7.45;;;;;;;5.52;51.01;95296.19;4998416;28;20033;-71
2024/02/03 10:55:17;;;;;;;5.53;3.20;;;;;;;5.44;51.42;95295.75;5014736;28;20048;-70
2024/02/03 10:57:43;;;;;;;4.50;2.78;;;;;;;5.54;51.32;95292.59;5014717;28;20488;-70
2024/02/03 11:00:10;;;;;;;3.08;2.50;;;;;;;5.52;51.24;95288.44;5014798;28;20484;-70
2024/02/03 11:02:36;;;;;;;9.25;6.18;;;;;;;5.61;51.25;95285.34;5032307;28;20036;-71
2024/02/03 11:05:01;;;;;;;8.07;5.38;;;;;;;5.54;50.94;95253.94;5014325;28;20422;-70
2024/02/03 11:07:27;;;;;;;5.35;3.13;;;;;;;5.56;51.04;95254.66;5014635;28;20025;-70
2024/02/03 11:09:59;;;;;;;4.93;3.53;;;;;;;5.77;51.24;95280.16;5031747;28;20501;-70
2024/02/03 11:12:34;;;;;;;5.78;3.63;;;;;;;5.89;51.00;95253.69;5032000;28;20064;-70
2024/02/03 11:15:00;;;;;;;4.55;3.03;;;;;;;6.08;50.99;95263.81;4998311;28;20262;-70
2024/02/03 11:17:30;;;;;;;4.25;2.65;;;;;;;6.16;50.18;95265.94;4981803;28;20034;-70
2024/02/03 11:19:56;;;;;;;4.10;3.10;;;;;;;6.11;50.17;95255.06;4998249;28;20500;-70
2024/02/03 11:22:25;;;;;;;3.72;2.60;;;;;;;6.12;50.19;95273.00;5031746;28;20147;-70
2024/02/03 11:24:51;;;;;;;5.80;3.50;;;;;;;5.97;50.18;95248.13;4997763;28;20049;-70
2024/02/03 11:27:16;;;;;;;3.90;2.70;;;;;;;6.28;49.71;95260.06;4997616;28;20459;-71